Wetterdaten: Woche 07.12.09 - 13.12.09 (KW50)
Datum Zeit Temperatur Luftfeuchte Luftdruck Niederschlag Wind Richtung Sonnenschein Solar Taupunkt Windchill Windben
07.12.2009 00:00 5.8 C 96 % 1014.5 hPa 0.2 l/m 0.1 km/h (0 Bft) N-NW 0.00 h 0 W/m 5.2 C 5.8 C 0.7 km/h (0 Bft)
07.12.2009 01:00 5.8 C 96 % 1014.4 hPa 0.4 l/m 0.0 km/h (0 Bft) N 0.00 h 0 W/m 5.3 C 5.8 C 0.0 km/h (0 Bft)
07.12.2009 02:00 6.0 C 97 % 1014.7 hPa 0.2 l/m 0.5 km/h (0 Bft) O-SO 0.00 h 0 W/m 5.5 C 5.9 C 0.9 km/h (0 Bft)
07.12.2009 03:00 6.4 C 97 % 1014.8 hPa 1.2 l/m 1.6 km/h (1 Bft) O-SO 0.00 h 0 W/m 6.0 C 6.3 C 3.0 km/h (1 Bft)
07.12.2009 04:00 7.3 C 98 % 1015.0 hPa 1.4 l/m 2.5 km/h (1 Bft) S-SO 0.00 h 0 W/m 7.0 C 7.1 C 4.2 km/h (1 Bft)
07.12.2009 05:00 8.1 C 98 % 1014.9 hPa 0.4 l/m 3.0 km/h (1 Bft) S-SO 0.00 h 0 W/m 7.8 C 7.9 C 5.5 km/h (1 Bft)
07.12.2009 06:00 8.2 C 98 % 1015.1 hPa 0.0 l/m 1.6 km/h (1 Bft) S-SO 0.00 h 0 W/m 7.9 C 8.1 C 3.5 km/h (1 Bft)
07.12.2009 07:00 8.0 C 98 % 1015.1 hPa 0.0 l/m 1.8 km/h (1 Bft) O-SO 0.00 h 0 W/m 7.7 C 8.0 C 3.2 km/h (1 Bft)
07.12.2009 08:00 8.0 C 98 % 1015.2 hPa 0.0 l/m 0.7 km/h (0 Bft) S 0.00 h 9 W/m 7.7 C 8.0 C 1.9 km/h (1 Bft)
07.12.2009 09:00 7.8 C 98 % 1015.0 hPa 0.4 l/m 1.4 km/h (1 Bft) S-SO 0.00 h 20 W/m 7.5 C 7.6 C 2.6 km/h (1 Bft)
07.12.2009 10:00 7.8 C 98 % 1014.7 hPa 0.0 l/m 0.1 km/h (0 Bft) S-SW 0.00 h 33 W/m 7.5 C 7.8 C 0.6 km/h (0 Bft)
07.12.2009 11:00 8.1 C 99 % 1014.4 hPa 0.0 l/m 0.0 km/h (0 Bft) N 0.00 h 54 W/m 7.9 C 8.1 C 0.1 km/h (0 Bft)
07.12.2009 12:00 8.2 C 98 % 1014.0 hPa 0.2 l/m 0.7 km/h (0 Bft) SO 0.00 h 54 W/m 7.9 C 8.2 C 1.4 km/h (1 Bft)
07.12.2009 13:00 8.3 C 98 % 1013.3 hPa 0.2 l/m 0.3 km/h (0 Bft) SO 0.00 h 50 W/m 8.0 C 8.3 C 1.0 km/h (0 Bft)
07.12.2009 14:00 8.4 C 98 % 1012.7 hPa 1.0 l/m 0.4 km/h (0 Bft) SO 0.00 h 28 W/m 8.2 C 8.4 C 1.5 km/h (1 Bft)
07.12.2009 15:00 8.3 C 98 % 1012.1 hPa 0.4 l/m 0.0 km/h (0 Bft) N 0.00 h 17 W/m 8.0 C 8.3 C 0.1 km/h (0 Bft)
07.12.2009 16:00 8.2 C 98 % 1012.2 hPa 2.4 l/m 1.0 km/h (0 Bft) O-SO 0.00 h 0 W/m 7.9 C 8.1 C 1.8 km/h (1 Bft)
07.12.2009 17:00 7.9 C 98 % 1012.0 hPa 1.8 l/m 0.9 km/h (0 Bft) O 0.00 h 0 W/m 7.6 C 7.9 C 1.7 km/h (1 Bft)
07.12.2009 18:00 7.9 C 99 % 1011.8 hPa 0.4 l/m 0.5 km/h (0 Bft) O 0.00 h 0 W/m 7.7 C 7.9 C 1.1 km/h (1 Bft)
07.12.2009 19:00 8.0 C 99 % 1011.4 hPa 0.0 l/m 0.0 km/h (0 Bft) N 0.00 h 0 W/m 7.8 C 8.0 C 0.2 km/h (0 Bft)
07.12.2009 20:00 8.0 C 99 % 1010.8 hPa 0.2 l/m 0.0 km/h (0 Bft) S-SO 0.00 h 0 W/m 7.9 C 8.0 C 0.3 km/h (0 Bft)
07.12.2009 21:00 7.9 C 99 % 1010.1 hPa 0.0 l/m 0.2 km/h (0 Bft) S-SO 0.00 h 0 W/m 7.7 C 7.9 C 0.4 km/h (0 Bft)
07.12.2009 22:00 7.8 C 99 % 1009.6 hPa 0.2 l/m 0.1 km/h (0 Bft) S-SO 0.00 h 0 W/m 7.7 C 7.8 C 0.3 km/h (0 Bft)
07.12.2009 23:00 7.6 C 99 % 1009.3 hPa 0.0 l/m 0.9 km/h (0 Bft) S-SO 0.00 h 0 W/m 7.4 C 7.6 C 1.5 km/h (1 Bft)
08.12.2009 00:00 7.7 C 99 % 1009.4 hPa 2.2 l/m 2.7 km/h (1 Bft) SO 0.00 h 0 W/m 7.5 C 7.5 C 4.4 km/h (1 Bft)
08.12.2009 01:00 7.9 C 99 % 1009.1 hPa 1.4 l/m 3.7 km/h (1 Bft) S-SO 0.00 h 0 W/m 7.8 C 7.5 C 6.1 km/h (2 Bft)
08.12.2009 02:00 7.9 C 99 % 1010.0 hPa 2.2 l/m 8.8 km/h (2 Bft) W-SW 0.00 h 0 W/m 7.8 C 6.5 C 14.4 km/h (3 Bft)
08.12.2009 03:00 7.4 C 98 % 1010.2 hPa 2.2 l/m 4.9 km/h (1 Bft) S 0.00 h 0 W/m 7.1 C 6.9 C 8.2 km/h (2 Bft)
08.12.2009 04:00 7.1 C 97 % 1009.8 hPa 1.2 l/m 9.1 km/h (2 Bft) W 0.00 h 0 W/m 6.7 C 5.8 C 14.5 km/h (3 Bft)
08.12.2009 05:00 5.7 C 91 % 1011.1 hPa 0.2 l/m 20.7 km/h (4 Bft) W 0.00 h 0 W/m 4.4 C 1.9 C 30.8 km/h (5 Bft)
08.12.2009 06:00 6.0 C 86 % 1012.6 hPa 0.2 l/m 18.2 km/h (3 Bft) W 0.00 h 0 W/m 3.9 C 2.6 C 27.5 km/h (4 Bft)
08.12.2009 07:00 5.7 C 84 % 1014.6 hPa 0.2 l/m 16.2 km/h (3 Bft) W-SW 0.00 h 0 W/m 3.2 C 2.6 C 24.8 km/h (4 Bft)
08.12.2009 08:00 5.9 C 80 % 1015.9 hPa 0.0 l/m 12.6 km/h (3 Bft) W-SW 0.00 h 14 W/m 2.8 C 3.4 C 19.7 km/h (3 Bft)
08.12.2009 09:00 5.7 C 81 % 1016.5 hPa 0.0 l/m 6.9 km/h (2 Bft) SW 0.13 h 57 W/m 2.7 C 4.5 C 10.7 km/h (2 Bft)
08.12.2009 10:00 6.3 C 76 % 1016.9 hPa 0.0 l/m 11.3 km/h (2 Bft) W 0.00 h 64 W/m 2.5 C 4.1 C 17.8 km/h (3 Bft)
08.12.2009 11:00 7.2 C 69 % 1017.1 hPa 0.2 l/m 13.7 km/h (3 Bft) W 0.97 h 269 W/m 1.9 C 4.8 C 21.3 km/h (4 Bft)
08.12.2009 12:00 8.1 C 64 % 1017.1 hPa 0.0 l/m 13.0 km/h (3 Bft) W 0.77 h 270 W/m 1.8 C 5.9 C 20.7 km/h (4 Bft)
08.12.2009 13:00 7.1 C 71 % 1017.4 hPa 0.0 l/m 8.0 km/h (2 Bft) W 0.40 h 147 W/m 2.3 C 5.8 C 13.3 km/h (3 Bft)
08.12.2009 14:00 8.0 C 65 % 1017.4 hPa 0.0 l/m 9.8 km/h (2 Bft) W-SW 0.80 h 187 W/m 1.9 C 6.4 C 15.7 km/h (3 Bft)
08.12.2009 15:00 8.5 C 62 % 1018.0 hPa 0.0 l/m 7.5 km/h (2 Bft) W-SW 1.00 h 115 W/m 1.5 C 7.4 C 11.3 km/h (2 Bft)
08.12.2009 16:00 7.6 C 63 % 1018.7 hPa 0.0 l/m 3.0 km/h (1 Bft) SW 0.40 h 29 W/m 1.0 C 7.4 C 5.5 km/h (1 Bft)
08.12.2009 17:00 6.5 C 67 % 1019.5 hPa 0.0 l/m 4.6 km/h (1 Bft) W-SW 0.00 h 0 W/m 0.7 C 6.0 C 7.2 km/h (2 Bft)
08.12.2009 18:00 6.3 C 68 % 1020.1 hPa 0.0 l/m 4.7 km/h (1 Bft) W 0.00 h 0 W/m 0.8 C 5.7 C 7.6 km/h (2 Bft)
08.12.2009 19:00 6.1 C 68 % 1020.7 hPa 0.0 l/m 3.7 km/h (1 Bft) SW 0.00 h 0 W/m 0.8 C 5.8 C 6.8 km/h (2 Bft)
08.12.2009 20:00 6.1 C 68 % 1021.1 hPa 0.0 l/m 5.2 km/h (1 Bft) SW 0.00 h 0 W/m 0.6 C 5.3 C 8.2 km/h (2 Bft)
08.12.2009 21:00 6.1 C 68 % 1021.5 hPa 0.0 l/m 5.9 km/h (2 Bft) SW 0.00 h 0 W/m 0.6 C 5.1 C 8.9 km/h (2 Bft)
08.12.2009 22:00 5.7 C 69 % 1022.0 hPa 0.0 l/m 2.7 km/h (1 Bft) SW 0.00 h 0 W/m 0.5 C 5.6 C 5.0 km/h (1 Bft)
08.12.2009 23:00 5.4 C 71 % 1022.4 hPa 0.0 l/m 2.9 km/h (1 Bft) SW 0.00 h 0 W/m 0.7 C 5.3 C 5.2 km/h (1 Bft)
09.12.2009 00:00 5.1 C 73 % 1023.1 hPa 0.0 l/m 1.8 km/h (1 Bft) S 0.00 h 0 W/m 0.7 C 5.1 C 3.9 km/h (1 Bft)
09.12.2009 01:00 4.8 C 75 % 1023.1 hPa 0.0 l/m 2.5 km/h (1 Bft) S-SO 0.00 h 0 W/m 0.6 C 4.5 C 5.0 km/h (1 Bft)
09.12.2009 02:00 3.8 C 78 % 1023.6 hPa 0.0 l/m 3.1 km/h (1 Bft) O-SO 0.00 h 0 W/m 0.4 C 3.5 C 4.8 km/h (1 Bft)
09.12.2009 03:00 2.8 C 81 % 1023.9 hPa 0.0 l/m 2.3 km/h (1 Bft) O-SO 0.00 h 0 W/m -0.1 C 2.5 C 3.2 km/h (1 Bft)
09.12.2009 04:00 1.6 C 85 % 1024.7 hPa 0.0 l/m 4.6 km/h (1 Bft) O-SO 0.00 h 0 W/m -0.6 C 0.6 C 6.0 km/h (2 Bft)
09.12.2009 05:00 1.3 C 87 % 1025.2 hPa 0.0 l/m 5.4 km/h (1 Bft) O-SO 0.00 h 0 W/m -0.6 C 0.1 C 7.1 km/h (2 Bft)
09.12.2009 06:00 0.8 C 87 % 1025.8 hPa 0.0 l/m 0.4 km/h (0 Bft) O-SO 0.00 h 0 W/m -1.0 C 0.8 C 0.8 km/h (0 Bft)
09.12.2009 07:00 -0.1 C 89 % 1026.7 hPa 0.0 l/m 0.5 km/h (0 Bft) O-SO 0.00 h 0 W/m -1.6 C -0.1 C 1.0 km/h (0 Bft)
09.12.2009 08:00 -0.5 C 91 % 1027.3 hPa 0.0 l/m 0.6 km/h (0 Bft) O-SO 0.03 h 16 W/m -1.7 C -0.5 C 1.0 km/h (0 Bft)
09.12.2009 09:00 -0.1 C 93 % 1027.4 hPa 0.0 l/m 0.1 km/h (0 Bft) O-SO 0.33 h 70 W/m -1.1 C -0.1 C 0.2 km/h (0 Bft)
09.12.2009 10:00 1.3 C 94 % 1027.4 hPa 0.0 l/m 0.0 km/h (0 Bft) N 0.13 h 69 W/m 0.4 C 1.3 C 0.4 km/h (0 Bft)
09.12.2009 11:00 3.0 C 94 % 1027.4 hPa 0.0 l/m 0.1 km/h (0 Bft) O-SO 0.98 h 246 W/m 2.1 C 3.0 C 0.6 km/h (0 Bft)
09.12.2009 12:00 5.4 C 86 % 1027.1 hPa 0.0 l/m 0.2 km/h (0 Bft) S-SO 1.00 h 250 W/m 3.2 C 5.4 C 0.9 km/h (0 Bft)
09.12.2009 13:00 7.0 C 71 % 1026.7 hPa 0.0 l/m 0.5 km/h (0 Bft) O-SO 0.98 h 223 W/m 2.0 C 7.0 C 1.9 km/h (1 Bft)
09.12.2009 14:00 7.7 C 66 % 1026.4 hPa 0.0 l/m 1.2 km/h (1 Bft) W-SW 0.73 h 143 W/m 1.8 C 7.7 C 2.8 km/h (1 Bft)
09.12.2009 15:00 8.1 C 64 % 1026.6 hPa 0.0 l/m 0.1 km/h (0 Bft) W-SW 0.58 h 72 W/m 1.6 C 8.1 C 0.8 km/h (0 Bft)
09.12.2009 16:00 7.4 C 67 % 1027.2 hPa 0.0 l/m 0.5 km/h (0 Bft) W-SW 0.02 h 13 W/m 1.6 C 7.4 C 1.4 km/h (1 Bft)
09.12.2009 17:00 3.7 C 79 % 1028.0 hPa 0.0 l/m 3.2 km/h (1 Bft) O-SO 0.00 h 0 W/m 0.4 C 3.2 C 4.4 km/h (1 Bft)
09.12.2009 18:00 2.2 C 85 % 1028.7 hPa 0.0 l/m 1.6 km/h (1 Bft) O-SO 0.00 h 0 W/m -0.1 C 2.1 C 2.5 km/h (1 Bft)
09.12.2009 19:00 1.2 C 87 % 1029.5 hPa 0.0 l/m 2.2 km/h (1 Bft) O-SO 0.00 h 0 W/m -0.7 C 0.9 C 3.3 km/h (1 Bft)
09.12.2009 20:00 0.4 C 89 % 1029.9 hPa 0.0 l/m 1.0 km/h (0 Bft) O-SO 0.00 h 0 W/m -1.2 C 0.4 C 1.7 km/h (1 Bft)
09.12.2009 21:00 0.0 C 91 % 1030.1 hPa 0.0 l/m 1.3 km/h (1 Bft) O-SO 0.00 h 0 W/m -1.3 C 0.0 C 2.1 km/h (1 Bft)
09.12.2009 22:00 -0.2 C 92 % 1030.0 hPa 0.0 l/m 0.8 km/h (0 Bft) O-SO 0.00 h 0 W/m -1.3 C -0.2 C 1.5 km/h (1 Bft)
09.12.2009 23:00 -0.3 C 93 % 1029.8 hPa 0.0 l/m 0.4 km/h (0 Bft) O-SO 0.00 h 0 W/m -1.3 C -0.3 C 0.8 km/h (0 Bft)
10.12.2009 00:00 -0.5 C 94 % 1029.3 hPa 0.0 l/m 0.2 km/h (0 Bft) O-SO 0.00 h 0 W/m -1.3 C -0.5 C 0.4 km/h (0 Bft)
10.12.2009 01:00 -0.6 C 95 % 1029.0 hPa 0.0 l/m 0.7 km/h (0 Bft) O-SO 0.00 h 0 W/m -1.3 C -0.6 C 1.6 km/h (1 Bft)
10.12.2009 02:00 -0.4 C 95 % 1028.9 hPa 0.0 l/m 1.3 km/h (1 Bft) O-SO 0.00 h 0 W/m -1.2 C -0.6 C 2.1 km/h (1 Bft)
10.12.2009 03:00 -0.3 C 95 % 1028.4 hPa 0.0 l/m 1.2 km/h (1 Bft) O-SO 0.00 h 0 W/m -1.0 C -0.5 C 2.1 km/h (1 Bft)
10.12.2009 04:00 0.2 C 96 % 1028.4 hPa 0.0 l/m 0.5 km/h (0 Bft) O-SO 0.00 h 0 W/m -0.4 C 0.2 C 1.0 km/h (0 Bft)
10.12.2009 05:00 0.6 C 96 % 1028.3 hPa 0.0 l/m 0.2 km/h (0 Bft) O-SO 0.00 h 0 W/m 0.0 C 0.6 C 0.7 km/h (0 Bft)
10.12.2009 06:00 1.0 C 96 % 1028.1 hPa 0.0 l/m 0.2 km/h (0 Bft) O-SO 0.00 h 0 W/m 0.4 C 1.0 C 0.8 km/h (0 Bft)
10.12.2009 07:00 1.5 C 96 % 1028.0 hPa 0.0 l/m 0.0 km/h (0 Bft) N 0.00 h 0 W/m 0.9 C 1.5 C 0.3 km/h (0 Bft)
10.12.2009 08:00 2.0 C 95 % 1028.1 hPa 0.8 l/m 0.7 km/h (0 Bft) O-SO 0.00 h 7 W/m 1.3 C 2.0 C 1.9 km/h (1 Bft)
10.12.2009 09:00 2.7 C 96 % 1027.8 hPa 0.2 l/m 3.8 km/h (1 Bft) S-SW 0.00 h 37 W/m 2.2 C 2.2 C 7.1 km/h (2 Bft)
10.12.2009 10:00 3.4 C 96 % 1027.6 hPa 0.8 l/m 5.9 km/h (2 Bft) S-SW 0.00 h 39 W/m 2.9 C 2.1 C 10.5 km/h (2 Bft)
10.12.2009 11:00 4.0 C 96 % 1027.5 hPa 0.4 l/m 6.2 km/h (2 Bft) S-SO 0.00 h 57 W/m 3.4 C 2.7 C 12.1 km/h (2 Bft)
10.12.2009 12:00 4.3 C 96 % 1027.1 hPa 1.0 l/m 4.2 km/h (1 Bft) S-SO 0.00 h 27 W/m 3.7 C 3.8 C 7.9 km/h (2 Bft)
10.12.2009 13:00 4.8 C 96 % 1026.6 hPa 0.6 l/m 2.6 km/h (1 Bft) SO 0.00 h 33 W/m 4.3 C 4.6 C 5.2 km/h (1 Bft)
10.12.2009 14:00 5.6 C 97 % 1026.4 hPa 0.0 l/m 2.7 km/h (1 Bft) O-SO 0.07 h 61 W/m 5.2 C 5.3 C 5.2 km/h (1 Bft)
10.12.2009 15:00 6.7 C 97 % 1026.2 hPa 0.0 l/m 3.5 km/h (1 Bft) S-SO 0.65 h 80 W/m 6.2 C 6.3 C 7.2 km/h (2 Bft)
10.12.2009 16:00 6.5 C 96 % 1026.4 hPa 0.0 l/m 5.4 km/h (1 Bft) S-SO 0.08 h 14 W/m 5.8 C 5.6 C 9.5 km/h (2 Bft)
10.12.2009 17:00 6.8 C 95 % 1026.7 hPa 0.0 l/m 4.9 km/h (1 Bft) W 0.00 h 0 W/m 6.0 C 6.1 C 8.8 km/h (2 Bft)
10.12.2009 18:00 7.5 C 91 % 1027.1 hPa 0.0 l/m 6.6 km/h (2 Bft) W 0.00 h 0 W/m 6.2 C 6.5 C 11.2 km/h (2 Bft)
10.12.2009 19:00 7.7 C 86 % 1027.1 hPa 0.0 l/m 7.0 km/h (2 Bft) W 0.00 h 0 W/m 5.4 C 6.7 C 11.2 km/h (2 Bft)
10.12.2009 20:00 6.2 C 86 % 1027.2 hPa 0.0 l/m 1.2 km/h (1 Bft) O 0.00 h 0 W/m 4.1 C 6.2 C 2.7 km/h (1 Bft)
10.12.2009 21:00 5.7 C 89 % 1027.1 hPa 0.0 l/m 2.2 km/h (1 Bft) W-NW 0.00 h 0 W/m 4.0 C 5.5 C 4.7 km/h (1 Bft)
10.12.2009 22:00 6.2 C 89 % 1026.9 hPa 0.0 l/m 5.3 km/h (1 Bft) W 0.00 h 0 W/m 4.5 C 5.4 C 8.9 km/h (2 Bft)
10.12.2009 23:00 6.1 C 85 % 1026.8 hPa 0.0 l/m 5.4 km/h (1 Bft) W 0.00 h 0 W/m 3.8 C 5.2 C 9.1 km/h (2 Bft)
11.12.2009 00:00 5.2 C 87 % 1026.6 hPa 0.0 l/m 3.5 km/h (1 Bft) W 0.00 h 0 W/m 3.2 C 4.6 C 6.4 km/h (2 Bft)
11.12.2009 01:00 5.2 C 88 % 1026.2 hPa 0.0 l/m 3.0 km/h (1 Bft) W 0.00 h 0 W/m 3.3 C 4.8 C 6.0 km/h (2 Bft)
11.12.2009 02:00 5.0 C 88 % 1026.1 hPa 0.0 l/m 4.1 km/h (1 Bft) W-SW 0.00 h 0 W/m 3.2 C 4.2 C 6.7 km/h (2 Bft)
11.12.2009 03:00 5.6 C 85 % 1025.8 hPa 0.0 l/m 3.5 km/h (1 Bft) W-SW 0.00 h 0 W/m 3.3 C 5.0 C 6.1 km/h (2 Bft)
11.12.2009 04:00 5.2 C 84 % 1025.6 hPa 0.0 l/m 3.2 km/h (1 Bft) SO 0.00 h 0 W/m 2.7 C 4.8 C 5.0 km/h (1 Bft)
11.12.2009 05:00 5.0 C 84 % 1025.2 hPa 0.0 l/m 1.2 km/h (1 Bft) SW 0.00 h 0 W/m 2.5 C 4.9 C 3.0 km/h (1 Bft)
11.12.2009 06:00 4.9 C 84 % 1024.9 hPa 0.0 l/m 1.5 km/h (1 Bft) W 0.00 h 0 W/m 2.4 C 4.8 C 3.2 km/h (1 Bft)
11.12.2009 07:00 4.9 C 83 % 1024.3 hPa 0.0 l/m 4.0 km/h (1 Bft) W 0.00 h 0 W/m 2.2 C 4.3 C 7.2 km/h (2 Bft)
11.12.2009 08:00 4.7 C 84 % 1024.3 hPa 0.0 l/m 2.7 km/h (1 Bft) W 0.00 h 7 W/m 2.2 C 4.5 C 5.2 km/h (1 Bft)
11.12.2009 09:00 5.0 C 84 % 1023.9 hPa 0.0 l/m 4.2 km/h (1 Bft) W-SW 0.00 h 25 W/m 2.5 C 4.3 C 7.3 km/h (2 Bft)
11.12.2009 10:00 5.3 C 85 % 1023.5 hPa 0.0 l/m 8.0 km/h (2 Bft) W 0.00 h 61 W/m 3.0 C 3.6 C 13.0 km/h (3 Bft)
11.12.2009 11:00 5.5 C 84 % 1023.0 hPa 0.0 l/m 7.1 km/h (2 Bft) W 0.00 h 49 W/m 3.0 C 4.1 C 11.7 km/h (2 Bft)
11.12.2009 12:00 5.7 C 84 % 1022.5 hPa 0.0 l/m 7.9 km/h (2 Bft) W 0.00 h 79 W/m 3.2 C 4.1 C 12.5 km/h (3 Bft)
11.12.2009 13:00 5.7 C 83 % 1021.8 hPa 0.0 l/m 10.8 km/h (2 Bft) W 0.00 h 76 W/m 3.1 C 3.4 C 17.4 km/h (3 Bft)
11.12.2009 14:00 5.7 C 83 % 1021.2 hPa 0.0 l/m 11.5 km/h (2 Bft) W 0.00 h 45 W/m 3.1 C 3.3 C 18.3 km/h (3 Bft)
11.12.2009 15:00 5.6 C 84 % 1021.3 hPa 0.0 l/m 5.8 km/h (2 Bft) W 0.00 h 8 W/m 3.1 C 4.6 C 9.5 km/h (2 Bft)
11.12.2009 16:00 5.3 C 87 % 1021.6 hPa 0.4 l/m 1.2 km/h (1 Bft) W 0.00 h 5 W/m 3.3 C 5.3 C 3.1 km/h (1 Bft)
11.12.2009 17:00 4.7 C 89 % 1022.1 hPa 0.4 l/m 1.5 km/h (1 Bft) O-SO 0.00 h 0 W/m 3.1 C 4.7 C 3.5 km/h (1 Bft)
11.12.2009 18:00 4.2 C 89 % 1022.4 hPa 0.2 l/m 0.7 km/h (0 Bft) O-SO 0.00 h 0 W/m 2.6 C 4.2 C 1.5 km/h (1 Bft)
11.12.2009 19:00 4.0 C 89 % 1022.7 hPa 0.4 l/m 0.7 km/h (0 Bft) O-SO 0.00 h 0 W/m 2.4 C 4.0 C 2.0 km/h (1 Bft)
11.12.2009 20:00 3.7 C 89 % 1022.8 hPa 0.2 l/m 1.2 km/h (1 Bft) N-NO 0.00 h 0 W/m 2.0 C 3.7 C 3.2 km/h (1 Bft)
11.12.2009 21:00 3.4 C 88 % 1022.9 hPa 0.2 l/m 0.6 km/h (0 Bft) O 0.00 h 0 W/m 1.6 C 3.4 C 1.6 km/h (1 Bft)
11.12.2009 22:00 3.2 C 89 % 1022.8 hPa 0.2 l/m 0.2 km/h (0 Bft) O-SO 0.00 h 0 W/m 1.6 C 3.2 C 1.0 km/h (0 Bft)
11.12.2009 23:00 2.9 C 90 % 1022.7 hPa 0.0 l/m 0.4 km/h (0 Bft) O 0.00 h 0 W/m 1.5 C 2.9 C 1.3 km/h (1 Bft)
12.12.2009 00:00 2.7 C 91 % 1022.7 hPa 0.0 l/m 0.1 km/h (0 Bft) O 0.00 h 0 W/m 1.4 C 2.7 C 0.7 km/h (0 Bft)
12.12.2009 01:00 2.7 C 91 % 1022.4 hPa 0.0 l/m 0.1 km/h (0 Bft) N-NO 0.00 h 0 W/m 1.5 C 2.7 C 0.4 km/h (0 Bft)
12.12.2009 02:00 2.6 C 91 % 1022.2 hPa 0.0 l/m 0.7 km/h (0 Bft) NO 0.00 h 0 W/m 1.3 C 2.5 C 2.5 km/h (1 Bft)
12.12.2009 03:00 2.4 C 91 % 1021.7 hPa 0.0 l/m 0.9 km/h (0 Bft) O 0.00 h 0 W/m 1.0 C 2.3 C 2.9 km/h (1 Bft)
12.12.2009 04:00 2.3 C 90 % 1021.4 hPa 0.0 l/m 1.1 km/h (1 Bft) N-NO 0.00 h 0 W/m 0.8 C 2.2 C 3.2 km/h (1 Bft)
12.12.2009 05:00 2.2 C 89 % 1021.3 hPa 0.0 l/m 1.5 km/h (1 Bft) N 0.00 h 0 W/m 0.6 C 2.2 C 3.6 km/h (1 Bft)
12.12.2009 06:00 1.9 C 89 % 1021.3 hPa 0.4 l/m 1.6 km/h (1 Bft) NO 0.00 h 0 W/m 0.2 C 1.8 C 3.9 km/h (1 Bft)
12.12.2009 07:00 1.4 C 90 % 1021.1 hPa 0.2 l/m 2.0 km/h (1 Bft) N-NO 0.00 h 0 W/m -0.1 C 1.1 C 4.5 km/h (1 Bft)
12.12.2009 08:00 1.2 C 91 % 1021.2 hPa 0.0 l/m 2.3 km/h (1 Bft) N-NO 0.00 h 14 W/m -0.1 C 1.0 C 5.3 km/h (1 Bft)
12.12.2009 09:00 1.2 C 91 % 1021.1 hPa 0.2 l/m 1.1 km/h (0 Bft) NO 0.00 h 46 W/m -0.1 C 1.2 C 3.6 km/h (1 Bft)
12.12.2009 10:00 1.5 C 91 % 1020.9 hPa 0.2 l/m 2.0 km/h (1 Bft) N-NO 0.00 h 81 W/m 0.1 C 1.4 C 4.8 km/h (1 Bft)
12.12.2009 11:00 1.8 C 89 % 1020.7 hPa 0.0 l/m 1.6 km/h (1 Bft) O 0.00 h 87 W/m 0.2 C 1.6 C 4.1 km/h (1 Bft)
12.12.2009 12:00 2.1 C 89 % 1020.0 hPa 0.0 l/m 2.6 km/h (1 Bft) N 0.00 h 116 W/m 0.5 C 1.8 C 5.9 km/h (2 Bft)
12.12.2009 13:00 2.4 C 88 % 1019.4 hPa 0.0 l/m 3.6 km/h (1 Bft) N-NO 0.00 h 92 W/m 0.5 C 1.7 C 7.8 km/h (2 Bft)
12.12.2009 14:00 2.6 C 86 % 1019.2 hPa 0.0 l/m 2.6 km/h (1 Bft) N-NO 0.00 h 76 W/m 0.5 C 2.4 C 5.7 km/h (1 Bft)
12.12.2009 15:00 2.4 C 81 % 1019.3 hPa 0.0 l/m 4.8 km/h (1 Bft) O 0.00 h 23 W/m -0.6 C 1.4 C 9.9 km/h (2 Bft)
12.12.2009 16:00 2.2 C 79 % 1019.2 hPa 0.0 l/m 3.3 km/h (1 Bft) N-NO 0.00 h 8 W/m -1.1 C 1.8 C 7.3 km/h (2 Bft)
12.12.2009 17:00 2.1 C 77 % 1019.1 hPa 0.0 l/m 5.0 km/h (1 Bft) N-NO 0.00 h 0 W/m -1.4 C 1.0 C 9.7 km/h (2 Bft)
12.12.2009 18:00 2.1 C 77 % 1018.9 hPa 0.0 l/m 4.1 km/h (1 Bft) N-NO 0.00 h 0 W/m -1.5 C 1.4 C 8.2 km/h (2 Bft)
12.12.2009 19:00 1.9 C 77 % 1019.0 hPa 0.0 l/m 0.9 km/h (0 Bft) NO 0.00 h 0 W/m -1.6 C 1.9 C 2.8 km/h (1 Bft)
12.12.2009 20:00 1.9 C 77 % 1019.0 hPa 0.0 l/m 2.2 km/h (1 Bft) N-NO 0.00 h 0 W/m -1.8 C 1.6 C 5.6 km/h (1 Bft)
12.12.2009 21:00 1.8 C 75 % 1019.0 hPa 0.0 l/m 4.9 km/h (1 Bft) NO 0.00 h 0 W/m -2.1 C 0.8 C 9.7 km/h (2 Bft)
12.12.2009 22:00 1.5 C 75 % 1018.9 hPa 0.0 l/m 3.4 km/h (1 Bft) NO 0.00 h 0 W/m -2.4 C 1.0 C 7.0 km/h (2 Bft)
12.12.2009 23:00 1.3 C 78 % 1018.9 hPa 0.0 l/m 3.0 km/h (1 Bft) N-NO 0.00 h 0 W/m -2.1 C 0.9 C 7.4 km/h (2 Bft)
13.12.2009 00:00 1.5 C 76 % 1018.4 hPa 0.0 l/m 5.2 km/h (1 Bft) N-NO 0.00 h 0 W/m -2.3 C 0.3 C 10.8 km/h (2 Bft)
13.12.2009 01:00 1.5 C 74 % 1017.8 hPa 0.0 l/m 2.5 km/h (1 Bft) N-NO 0.00 h 0 W/m -2.6 C 1.2 C 6.1 km/h (2 Bft)
13.12.2009 02:00 1.5 C 75 % 1017.7 hPa 0.0 l/m 3.0 km/h (1 Bft) O-NO 0.00 h 0 W/m -2.5 C 1.1 C 6.7 km/h (2 Bft)
13.12.2009 03:00 1.2 C 75 % 1017.4 hPa 0.0 l/m 4.5 km/h (1 Bft) N-NO 0.00 h 0 W/m -2.7 C 0.3 C 9.4 km/h (2 Bft)
13.12.2009 04:00 0.9 C 72 % 1017.1 hPa 0.0 l/m 6.0 km/h (2 Bft) N-NO 0.00 h 0 W/m -3.6 C -0.7 C 12.1 km/h (2 Bft)
13.12.2009 05:00 0.7 C 71 % 1016.9 hPa 0.0 l/m 3.8 km/h (1 Bft) N-NO 0.00 h 0 W/m -3.9 C -0.1 C 8.7 km/h (2 Bft)
13.12.2009 06:00 0.3 C 71 % 1016.8 hPa 0.0 l/m 4.1 km/h (1 Bft) N-NO 0.00 h 0 W/m -4.3 C -0.6 C 9.0 km/h (2 Bft)
13.12.2009 07:00 -0.2 C 72 % 1017.0 hPa 0.0 l/m 3.1 km/h (1 Bft) NO 0.00 h 0 W/m -4.6 C -0.7 C 6.6 km/h (2 Bft)
13.12.2009 08:00 -0.5 C 73 % 1017.4 hPa 0.0 l/m 3.6 km/h (1 Bft) N 0.00 h 9 W/m -4.7 C -1.2 C 7.3 km/h (2 Bft)
13.12.2009 09:00 -0.4 C 73 % 1017.5 hPa 0.0 l/m 3.2 km/h (1 Bft) N 0.00 h 37 W/m -4.7 C -1.2 C 6.7 km/h (2 Bft)
13.12.2009 10:00 0.2 C 71 % 1017.4 hPa 0.0 l/m 3.5 km/h (1 Bft) N-NO 0.00 h 70 W/m -4.4 C -0.5 C 7.3 km/h (2 Bft)
13.12.2009 11:00 0.7 C 68 % 1017.1 hPa 0.0 l/m 3.3 km/h (1 Bft) N-NO 0.00 h 83 W/m -4.5 C 0.0 C 7.2 km/h (2 Bft)
13.12.2009 12:00 0.8 C 65 % 1016.8 hPa 0.0 l/m 3.2 km/h (1 Bft) N 0.00 h 76 W/m -5.1 C 0.2 C 6.6 km/h (2 Bft)
13.12.2009 13:00 0.6 C 65 % 1016.5 hPa 0.0 l/m 5.4 km/h (1 Bft) N 0.00 h 54 W/m -5.3 C -0.7 C 10.4 km/h (2 Bft)
13.12.2009 14:00 0.3 C 67 % 1016.4 hPa 0.0 l/m 4.1 km/h (1 Bft) N-NW 0.00 h 26 W/m -5.2 C -0.6 C 8.9 km/h (2 Bft)
13.12.2009 15:00 0.2 C 68 % 1016.4 hPa 0.0 l/m 1.4 km/h (1 Bft) N-NO 0.00 h 14 W/m -4.9 C 0.1 C 3.3 km/h (1 Bft)
13.12.2009 16:00 0.2 C 70 % 1016.5 hPa 0.0 l/m 2.8 km/h (1 Bft) N-NO 0.00 h 9 W/m -4.7 C -0.3 C 5.7 km/h (1 Bft)
13.12.2009 17:00 0.1 C 71 % 1016.5 hPa 0.0 l/m 2.7 km/h (1 Bft) N-NO 0.00 h 0 W/m -4.5 C -0.3 C 6.0 km/h (2 Bft)
13.12.2009 18:00 -0.0 C 71 % 1016.4 hPa 0.0 l/m 4.2 km/h (1 Bft) N-NO 0.00 h 0 W/m -4.6 C -0.9 C 9.6 km/h (2 Bft)
13.12.2009 19:00 -0.0 C 71 % 1016.3 hPa 0.0 l/m 6.2 km/h (2 Bft) NO 0.00 h 0 W/m -4.6 C -1.8 C 12.8 km/h (3 Bft)
13.12.2009 20:00 0.0 C 70 % 1016.5 hPa 0.0 l/m 5.2 km/h (1 Bft) N-NO 0.00 h 0 W/m -4.7 C -1.4 C 11.4 km/h (2 Bft)
13.12.2009 21:00 -0.1 C 69 % 1016.4 hPa 0.0 l/m 5.3 km/h (1 Bft) N-NO 0.00 h 0 W/m -5.1 C -1.5 C 11.1 km/h (2 Bft)
13.12.2009 22:00 -0.2 C 70 % 1016.5 hPa 0.0 l/m 6.1 km/h (2 Bft) N-NO 0.00 h 0 W/m -5.1 C -2.0 C 13.5 km/h (3 Bft)
13.12.2009 23:00 -0.4 C 69 % 1016.6 hPa 0.0 l/m 5.5 km/h (1 Bft) NO 0.00 h 0 W/m -5.4 C -1.9 C 12.0 km/h (2 Bft)
Min-Datum _ 09.12.09 08.12.09 08.12.09 - 07.12.09 - - - 13.12.09 13.12.09 07.12.09
_ Min-Zeit 09:00 14:50 00:00 - 00:00 - - - 23:58 22:36 00:02
Minimum _ -0.7 C 61 % 1009.1 hPa - 0.0 km/h (0 Bft) - - - -6.0 C -4.6 C 0.0 km/h (0 Bft)
Max-Datum _ 07.12.09 07.12.09 09.12.09 07.12.09 08.12.09 - 08.12.09 08.12.09 07.12.09 07.12.09 08.12.09
_ Max-Zeit 14:12 10:40 20:45 16:02 05:01 - 09:38 12:21 14:12 14:12 05:01
Maximum _ 8.6 C 99 % 1030.1 hPa 2.4 l/m 36.5 km/h
W (5 Bft)
- 0.02 h 418 W/m 8.5 C 8.6 C 55.6 km/h
W (7 Bft)
Durchschnitt _ 4.0 C 85 % 1020.7 hPa #27.8 l/m 3.4 km/h (1 Bft) W #10:04 h 67 W/m 1.6 C 3.5 C 6.2 km/h (2 Bft)
© Kaiko 2009